Terminal Aerodrome Forecast
Issued by NWS

Home | Current Version | Previous Version | Text Only | Print | Product List | Glossary On
Versions: 1 2 3 4 5 6 7 8 9 10 11 12 13 14 15 16 17 18 19 20 21 22 23 24 25 26 27 28 29 30 31 32 33
000
FTUS45 KREV 240200 AAA
TAFTRK
TAF AMD
KTRK 240245Z 2403/2424 21004KT 4SM FU HZ OVC025
     FM240400 VRB03KT 6SM HZ SKC
     FM241700 20011G20KT P6SM SKC
     FM242000 21012G24KT 4SM FU HZ SCT020
      AMD NOT SKED TIL 241200=

USA.gov is the U.S. government's official web portal to all federal, state and local government web resources and services.